createdAt,value
2017-11-28T00:01:39.308Z,7.13
2017-11-28T00:04:06.712Z,7.16
2017-11-28T00:06:34.164Z,7.21
2017-11-28T00:09:01.577Z,7.25
2017-11-28T00:11:28.972Z,7.23
2017-11-28T00:13:56.371Z,7.23
2017-11-28T00:16:23.792Z,7.17
2017-11-28T00:18:51.188Z,7.15
2017-11-28T00:21:18.617Z,7.11
2017-11-28T00:23:46.038Z,7.12
2017-11-28T00:26:13.444Z,7.11
2017-11-28T00:28:40.864Z,7.06
2017-11-28T00:31:08.276Z,6.88
2017-11-28T00:33:35.686Z,6.78
2017-11-28T00:36:03.091Z,6.79
2017-11-28T00:38:30.484Z,6.82
2017-11-28T00:40:57.897Z,6.84
2017-11-28T00:43:25.288Z,6.72
2017-11-28T00:45:52.709Z,6.74
2017-11-28T00:48:20.123Z,6.72
2017-11-28T00:50:47.521Z,6.81
2017-11-28T00:53:14.979Z,6.77
2017-11-28T00:55:42.364Z,6.86
2017-11-28T00:58:09.842Z,6.86
2017-11-28T01:00:37.280Z,6.85
2017-11-28T01:03:04.670Z,6.94
2017-11-28T01:05:32.068Z,6.97
2017-11-28T01:07:59.500Z,6.98
2017-11-28T01:10:26.972Z,7.01
2017-11-28T01:12:54.358Z,7.04
2017-11-28T01:15:21.803Z,7.04
2017-11-28T01:17:49.200Z,7.03
2017-11-28T01:20:16.588Z,7.08
2017-11-28T01:22:43.995Z,7.04
2017-11-28T01:25:11.392Z,7.05
2017-11-28T01:27:38.800Z,7.04
2017-11-28T01:30:06.212Z,7.09
2017-11-28T01:32:33.632Z,7.06
2017-11-28T01:35:01.033Z,7.02
2017-11-28T01:37:28.417Z,7.06
2017-11-28T01:39:55.874Z,7.04
2017-11-28T01:42:23.292Z,7.03
2017-11-28T01:44:50.700Z,7.02
2017-11-28T01:47:18.089Z,7.02
2017-11-28T01:49:45.488Z,7.06
2017-11-28T01:52:12.884Z,7.00
2017-11-28T01:54:40.276Z,7.01
2017-11-28T01:57:07.688Z,6.99
2017-11-28T01:59:35.072Z,7.00
2017-11-28T02:02:02.499Z,7.00
2017-11-28T02:04:29.869Z,7.04
2017-11-28T02:06:57.278Z,7.00
2017-11-28T02:09:24.652Z,7.00
2017-11-28T02:11:52.039Z,7.02
2017-11-28T02:14:19.432Z,7.01
2017-11-28T02:16:46.818Z,7.03
2017-11-28T02:19:14.219Z,7.05
2017-11-28T02:21:41.616Z,7.07
2017-11-28T02:24:09.015Z,7.05
2017-11-28T02:26:36.407Z,7.08
2017-11-28T02:29:03.795Z,7.08
2017-11-28T02:31:31.192Z,7.09
2017-11-28T02:33:58.576Z,7.12
2017-11-28T02:36:25.968Z,7.12
2017-11-28T02:38:53.356Z,7.13
2017-11-28T02:41:20.756Z,7.12
2017-11-28T02:43:48.929Z,7.12
2017-11-28T02:46:17.221Z,7.12
2017-11-28T02:48:55.976Z,7.12
2017-11-28T02:51:23.360Z,7.15
2017-11-28T02:53:50.766Z,7.18
2017-11-28T02:56:18.152Z,7.16
2017-11-28T02:58:50.806Z,7.22
2017-11-28T03:01:19.007Z,7.18
2017-11-28T03:03:46.409Z,7.15
2017-11-28T03:06:13.792Z,7.14
2017-11-28T03:08:41.188Z,7.13
2017-11-28T03:11:08.580Z,7.17
2017-11-28T03:13:36.673Z,7.12
2017-11-28T03:19:03.707Z,7.17
2017-11-28T03:21:31.108Z,7.15
2017-11-28T03:26:55.360Z,7.13
2017-11-28T03:29:27.240Z,7.14
2017-11-28T03:31:54.631Z,7.16
2017-11-28T03:34:22.028Z,7.18
2017-11-28T03:36:49.432Z,7.15
2017-11-28T03:39:16.815Z,7.19
2017-11-28T03:41:44.208Z,7.19
2017-11-28T03:47:10.983Z,7.24
2017-11-28T03:49:38.380Z,7.24
2017-11-28T03:52:05.772Z,7.26
2017-11-28T03:54:33.163Z,7.30
2017-11-28T03:57:00.566Z,7.29
2017-11-28T03:59:27.961Z,7.26
2017-11-28T04:01:55.374Z,7.25
2017-11-28T04:04:22.760Z,7.27
2017-11-28T04:06:50.163Z,7.33
2017-11-28T04:09:17.560Z,7.32
2017-11-28T04:11:44.948Z,7.32
2017-11-28T04:14:12.345Z,7.29
2017-11-28T04:16:39.735Z,7.34
2017-11-28T04:19:07.128Z,7.30
2017-11-28T04:21:34.533Z,7.32
2017-11-28T04:24:01.917Z,7.24
2017-11-28T04:26:29.317Z,7.25
2017-11-28T04:28:56.734Z,7.26
2017-11-28T04:31:24.109Z,7.28
2017-11-28T04:33:51.500Z,7.28
2017-11-28T04:36:18.889Z,7.30
2017-11-28T04:38:46.280Z,7.30
2017-11-28T04:41:13.668Z,7.28
2017-11-28T04:43:41.056Z,7.30
2017-11-28T04:46:08.452Z,7.27
2017-11-28T04:48:35.835Z,7.26
2017-11-28T04:51:03.248Z,7.27
2017-11-28T04:53:30.649Z,7.25
2017-11-28T04:55:58.028Z,7.25
2017-11-28T04:58:25.432Z,7.27
2017-11-28T05:00:53.481Z,7.25
2017-11-28T05:03:20.911Z,7.28
2017-11-28T05:05:48.300Z,7.26
2017-11-28T05:08:15.719Z,7.25
2017-11-28T05:10:43.144Z,7.29
2017-11-28T05:13:10.540Z,7.28
2017-11-28T05:15:37.968Z,7.33
2017-11-28T05:18:05.353Z,7.33
2017-11-28T05:20:32.765Z,7.32
2017-11-28T05:23:00.150Z,7.35
2017-11-28T05:25:27.550Z,7.35
2017-11-28T05:27:54.970Z,7.34
2017-11-28T05:30:22.367Z,7.34
2017-11-28T05:32:49.769Z,7.37
2017-11-28T05:35:17.159Z,7.38
2017-11-28T05:37:44.571Z,7.36
2017-11-28T05:40:11.960Z,7.43
2017-11-28T05:42:39.345Z,7.38
2017-11-28T05:45:06.730Z,7.39
2017-11-28T05:47:34.155Z,7.37
2017-11-28T05:50:02.228Z,7.40
2017-11-28T05:52:29.656Z,7.38
2017-11-28T05:54:57.044Z,7.36
2017-11-28T05:57:24.444Z,7.35
2017-11-28T05:59:52.178Z,7.33
2017-11-28T06:02:19.653Z,7.25
2017-11-28T06:04:47.051Z,7.23
2017-11-28T06:07:14.470Z,7.17
2017-11-28T06:09:41.847Z,7.16
2017-11-28T06:12:09.240Z,7.15
2017-11-28T06:14:36.635Z,7.07
2017-11-28T06:17:04.061Z,7.07
2017-11-28T06:19:31.452Z,7.01
2017-11-28T06:21:58.850Z,6.98
2017-11-28T06:24:26.268Z,6.95
2017-11-28T06:26:53.662Z,6.92
2017-11-28T06:29:21.080Z,6.94
2017-11-28T06:31:48.476Z,6.90
2017-11-28T06:34:15.865Z,6.85
2017-11-28T06:36:43.256Z,6.82
2017-11-28T06:39:10.643Z,6.78
2017-11-28T06:41:38.053Z,6.80
2017-11-28T06:44:05.449Z,6.73
2017-11-28T06:46:32.839Z,6.68
2017-11-28T06:49:00.239Z,6.54
2017-11-28T06:51:27.656Z,6.52
2017-11-28T06:53:55.045Z,6.46
2017-11-28T06:56:22.437Z,6.42
2017-11-28T06:58:49.819Z,6.39
2017-11-28T07:01:17.212Z,6.36
2017-11-28T07:03:44.638Z,6.36
2017-11-28T07:06:12.036Z,6.42
2017-11-28T07:08:39.433Z,6.47
2017-11-28T07:11:06.851Z,6.51
2017-11-28T07:13:34.312Z,6.51
2017-11-28T07:16:01.671Z,6.51
2017-11-28T07:18:29.115Z,6.48
2017-11-28T07:20:56.562Z,6.41
2017-11-28T07:23:23.945Z,6.38
2017-11-28T07:25:51.353Z,6.43
2017-11-28T07:28:18.743Z,6.44
2017-11-28T07:30:46.165Z,6.44
2017-11-28T07:33:13.564Z,6.41
2017-11-28T07:35:40.947Z,6.44
2017-11-28T07:38:08.365Z,6.43
2017-11-28T07:40:35.750Z,6.42
2017-11-28T07:43:03.212Z,6.37
2017-11-28T07:45:30.604Z,6.39
2017-11-28T07:47:57.986Z,6.31
2017-11-28T07:50:25.373Z,6.29
2017-11-28T07:52:52.782Z,6.24
2017-11-28T07:55:20.208Z,6.21
2017-11-28T07:57:47.668Z,6.11
2017-11-28T08:00:15.055Z,6.04
2017-11-28T08:02:42.500Z,6.01
2017-11-28T08:05:09.921Z,5.99
2017-11-28T08:07:37.349Z,5.96
2017-11-28T08:10:04.741Z,5.95
2017-11-28T08:12:32.119Z,5.94
2017-11-28T08:14:59.545Z,5.99
2017-11-28T08:17:26.948Z,6.01
2017-11-28T08:19:54.353Z,6.01
2017-11-28T08:22:21.744Z,6.05
2017-11-28T08:24:49.134Z,6.06
2017-11-28T08:27:16.545Z,6.10
2017-11-28T08:29:43.938Z,6.17
2017-11-28T08:32:11.341Z,6.15
2017-11-28T08:34:38.737Z,6.19
2017-11-28T08:37:06.134Z,6.20
2017-11-28T08:39:33.530Z,6.23
2017-11-28T08:42:00.936Z,6.30
2017-11-28T08:44:28.347Z,6.41
2017-11-28T08:46:55.774Z,6.49
2017-11-28T08:49:23.187Z,6.60
2017-11-28T08:51:50.584Z,6.73
2017-11-28T08:54:18.003Z,6.80
2017-11-28T08:56:45.433Z,6.86
2017-11-28T08:59:12.872Z,6.89
2017-11-28T09:01:40.259Z,6.97
2017-11-28T09:04:07.690Z,7.01
2017-11-28T09:06:35.066Z,7.00
2017-11-28T09:09:02.468Z,7.01
2017-11-28T09:11:29.860Z,6.99
2017-11-28T09:13:57.248Z,7.08
2017-11-28T09:16:24.640Z,6.87
2017-11-28T09:18:52.029Z,6.94
2017-11-28T09:21:19.448Z,7.10
2017-11-28T09:23:46.834Z,7.13
2017-11-28T09:26:14.227Z,7.11
2017-11-28T09:28:41.648Z,7.19
2017-11-28T09:31:09.028Z,7.05
2017-11-28T09:33:36.440Z,7.16
2017-11-28T09:36:03.828Z,7.13
2017-11-28T09:38:31.226Z,7.24
2017-11-28T09:40:58.618Z,7.28
2017-11-28T09:43:26.011Z,7.35
2017-11-28T09:45:53.437Z,7.39
2017-11-28T09:48:20.824Z,7.47
2017-11-28T09:50:48.219Z,7.51
2017-11-28T09:53:15.615Z,7.52
2017-11-28T09:55:43.004Z,7.48
2017-11-28T09:58:10.412Z,7.53
2017-11-28T10:00:37.788Z,7.54
2017-11-28T10:03:05.202Z,7.63
2017-11-28T10:05:32.603Z,7.71
2017-11-28T10:08:00.015Z,7.68
2017-11-28T10:10:27.416Z,7.71
2017-11-28T10:12:54.810Z,7.76
2017-11-28T10:15:22.187Z,7.73
2017-11-28T10:17:49.576Z,7.65
2017-11-28T10:20:17.039Z,7.66
2017-11-28T10:22:44.484Z,7.66
2017-11-28T10:25:11.879Z,7.73
2017-11-28T10:27:39.260Z,7.76
2017-11-28T10:30:06.656Z,7.79
2017-11-28T10:32:34.051Z,7.74
2017-11-28T10:35:01.445Z,7.75
2017-11-28T10:37:28.829Z,7.83
2017-11-28T10:39:56.208Z,7.78
2017-11-28T10:42:23.595Z,7.82
2017-11-28T10:44:50.983Z,7.77
2017-11-28T10:47:18.397Z,7.75
2017-11-28T10:49:45.788Z,7.80
2017-11-28T10:52:13.490Z,7.87
2017-11-28T10:54:40.883Z,7.93
2017-11-28T10:57:08.276Z,7.83
2017-11-28T10:59:35.689Z,7.89
2017-11-28T11:02:03.076Z,7.88
2017-11-28T11:04:30.471Z,7.96
2017-11-28T11:06:57.860Z,7.96
2017-11-28T11:09:25.243Z,8.02
2017-11-28T11:11:52.640Z,7.96
2017-11-28T11:14:20.029Z,8.01
2017-11-28T11:16:47.413Z,8.00
2017-11-28T11:19:14.804Z,7.96
2017-11-28T11:21:42.193Z,7.97
2017-11-28T11:24:09.593Z,8.00
2017-11-28T11:26:36.988Z,7.93
2017-11-28T11:29:04.371Z,8.04
2017-11-28T11:31:31.766Z,7.99
2017-11-28T11:33:59.156Z,8.00
2017-11-28T11:36:26.568Z,7.99
2017-11-28T11:38:53.956Z,8.03
2017-11-28T11:41:21.349Z,8.01
2017-11-28T11:43:48.760Z,8.01
2017-11-28T11:46:16.147Z,7.91
2017-11-28T11:48:43.547Z,7.96
2017-11-28T11:51:10.928Z,7.85
2017-11-28T11:53:38.321Z,7.95
2017-11-28T11:56:05.713Z,7.99
2017-11-28T11:58:33.112Z,8.00
2017-11-28T12:01:00.509Z,7.93
2017-11-28T12:03:27.896Z,8.07
2017-11-28T12:05:55.284Z,8.17
2017-11-28T12:08:22.684Z,8.26
2017-11-28T12:10:50.085Z,8.30
2017-11-28T12:13:17.475Z,8.08
2017-11-28T12:15:44.856Z,8.04
2017-11-28T12:18:12.243Z,8.07
2017-11-28T12:20:39.635Z,8.00
2017-11-28T12:23:07.029Z,8.05
2017-11-28T12:25:34.443Z,8.09
2017-11-28T12:28:01.833Z,8.17
2017-11-28T12:30:29.230Z,8.31
2017-11-28T12:32:56.614Z,8.26
2017-11-28T12:35:23.998Z,8.13
2017-11-28T12:37:51.393Z,8.22
2017-11-28T12:40:18.776Z,8.29
2017-11-28T12:42:46.172Z,8.19
2017-11-28T12:45:13.565Z,8.05
2017-11-28T12:47:40.943Z,8.04
2017-11-28T12:50:08.337Z,8.13
2017-11-28T12:52:35.720Z,8.12
2017-11-28T12:55:03.115Z,8.14
2017-11-28T12:57:30.491Z,8.08
2017-11-28T12:59:57.884Z,8.15
2017-11-28T13:02:25.283Z,8.12
2017-11-28T13:04:52.669Z,8.23
2017-11-28T13:07:20.052Z,8.35
2017-11-28T13:09:47.445Z,8.38
2017-11-28T13:12:14.835Z,8.30
2017-11-28T13:14:42.229Z,8.34
2017-11-28T13:17:09.609Z,8.20
2017-11-28T13:19:37.007Z,8.21
2017-11-28T13:22:04.388Z,8.26
2017-11-28T13:24:31.764Z,8.31
2017-11-28T13:26:59.193Z,8.37
2017-11-28T13:29:26.576Z,8.21
2017-11-28T13:31:53.961Z,8.14
2017-11-28T13:34:21.372Z,8.18
2017-11-28T13:36:48.755Z,8.34
2017-11-28T13:39:16.168Z,8.20
2017-11-28T13:41:43.600Z,8.26
2017-11-28T13:44:10.974Z,8.33
2017-11-28T13:46:38.393Z,8.34
2017-11-28T13:49:05.800Z,8.43
2017-11-28T13:51:33.232Z,8.45
2017-11-28T13:54:00.628Z,8.51
2017-11-28T13:56:30.746Z,8.51
2017-11-28T13:58:58.127Z,8.59
2017-11-28T14:01:25.533Z,8.80
2017-11-28T14:03:52.916Z,9.05
2017-11-28T14:06:20.308Z,9.00
2017-11-28T14:08:47.700Z,9.19
2017-11-28T14:11:15.096Z,9.12
2017-11-28T14:13:42.485Z,9.08
2017-11-28T14:16:09.938Z,9.31
2017-11-28T14:18:37.311Z,9.25
2017-11-28T14:24:08.599Z,9.10
2017-11-28T14:26:37.346Z,9.06
2017-11-28T14:29:05.517Z,8.95
2017-11-28T14:31:35.184Z,8.91
2017-11-28T14:34:04.108Z,8.61
2017-11-28T14:36:31.487Z,8.68
2017-11-28T14:39:22.568Z,8.64
2017-11-28T14:42:06.744Z,8.52
2017-11-28T14:44:37.515Z,8.51
2017-11-28T14:47:04.900Z,8.46
2017-11-28T14:49:32.284Z,8.41
2017-11-28T14:52:10.503Z,8.39
2017-11-28T14:54:43.308Z,8.36
2017-11-28T14:57:16.207Z,8.34
2017-11-28T14:59:49.173Z,8.31
2017-11-28T15:02:22.207Z,8.17
2017-11-28T15:04:55.097Z,8.17
2017-11-28T15:07:28.107Z,8.16
2017-11-28T15:10:01.086Z,8.13
2017-11-28T15:12:34.127Z,8.12
2017-11-28T15:15:07.025Z,8.12
2017-11-28T15:17:39.883Z,8.14
2017-11-28T15:20:08.205Z,8.10
2017-11-28T15:22:39.423Z,8.10
2017-11-28T15:28:09.654Z,8.06
2017-11-28T15:30:37.040Z,8.03
2017-11-28T15:33:04.432Z,8.00
2017-11-28T15:35:31.812Z,7.95
2017-11-28T15:37:59.201Z,7.93
2017-11-28T15:40:26.589Z,7.93
2017-11-28T15:42:53.980Z,7.97
2017-11-28T15:45:21.383Z,7.96
2017-11-28T15:47:48.783Z,7.92
2017-11-28T15:50:16.169Z,7.90
2017-11-28T15:52:43.580Z,7.90
2017-11-28T15:55:10.971Z,7.87
2017-11-28T15:57:38.375Z,7.91
2017-11-28T16:00:05.769Z,7.87
2017-11-28T16:02:33.165Z,7.89
2017-11-28T16:05:00.575Z,7.81
2017-11-28T16:07:27.964Z,7.83
2017-11-28T16:09:55.368Z,7.81
2017-11-28T16:12:22.774Z,7.77
2017-11-28T16:14:50.173Z,7.76
2017-11-28T16:17:17.571Z,7.75
2017-11-28T16:19:44.965Z,7.76
2017-11-28T16:22:12.368Z,7.75
2017-11-28T16:24:39.757Z,7.72
2017-11-28T16:27:07.179Z,7.71
2017-11-28T16:29:34.624Z,7.68
2017-11-28T16:32:02.009Z,7.73
2017-11-28T16:34:29.408Z,7.69
2017-11-28T16:36:56.815Z,7.63
2017-11-28T16:39:24.208Z,7.61
2017-11-28T16:41:51.604Z,7.53
2017-11-28T16:44:19.004Z,7.48
2017-11-28T16:46:46.405Z,7.49
2017-11-28T16:49:13.784Z,7.45
2017-11-28T16:51:41.168Z,7.45
2017-11-28T16:54:08.553Z,7.41
2017-11-28T16:56:35.944Z,7.31
2017-11-28T16:59:03.332Z,7.22
2017-11-28T17:01:30.724Z,7.10
2017-11-28T17:03:58.102Z,7.05
2017-11-28T17:06:25.517Z,6.95
2017-11-28T17:08:52.892Z,6.85
2017-11-28T17:11:20.303Z,6.80
2017-11-28T17:13:47.687Z,6.65
2017-11-28T17:16:15.073Z,6.57
2017-11-28T17:18:42.473Z,6.46
2017-11-28T17:21:09.860Z,6.39
2017-11-28T17:23:37.265Z,6.33
2017-11-28T17:26:04.657Z,6.30
2017-11-28T17:28:32.417Z,6.29
2017-11-28T17:31:03.779Z,6.38
2017-11-28T17:33:31.175Z,6.32
2017-11-28T17:35:58.583Z,6.20
2017-11-28T17:38:25.980Z,6.14
2017-11-28T17:40:53.375Z,6.08
2017-11-28T17:43:20.783Z,6.03
2017-11-28T17:45:48.170Z,5.97
2017-11-28T17:48:15.577Z,5.95
2017-11-28T17:50:42.979Z,5.94
2017-11-28T17:53:10.366Z,5.94
2017-11-28T17:55:41.619Z,5.96
2017-11-28T17:58:09.790Z,5.94
2017-11-28T18:00:37.192Z,5.87
2017-11-28T18:03:04.563Z,5.87
2017-11-28T18:05:31.961Z,5.88
2017-11-28T18:07:59.355Z,5.93
2017-11-28T18:10:26.755Z,5.95
2017-11-28T18:12:54.159Z,5.96
2017-11-28T18:15:21.543Z,5.99
2017-11-28T18:17:49.204Z,5.98
2017-11-28T18:20:16.900Z,6.03
2017-11-28T18:22:44.296Z,6.08
2017-11-28T18:25:11.697Z,6.13
2017-11-28T18:27:39.084Z,6.21
2017-11-28T18:30:06.480Z,6.29
2017-11-28T18:32:33.872Z,6.33
2017-11-28T18:35:01.269Z,6.37
2017-11-28T18:37:28.670Z,6.38
2017-11-28T18:39:56.047Z,6.41
2017-11-28T18:42:23.444Z,6.43
2017-11-28T18:44:50.847Z,6.42
2017-11-28T18:47:18.232Z,6.42
2017-11-28T18:49:45.639Z,6.44
2017-11-28T18:52:13.031Z,6.42
2017-11-28T18:54:40.416Z,6.40
2017-11-28T18:57:07.816Z,6.38
2017-11-28T18:59:35.207Z,6.38
2017-11-28T19:02:02.615Z,6.39
2017-11-28T19:04:30.008Z,6.38
2017-11-28T19:06:57.411Z,6.33
2017-11-28T19:09:24.804Z,6.30
2017-11-28T19:11:52.203Z,6.26
2017-11-28T19:14:19.586Z,6.21
2017-11-28T19:16:55.371Z,6.15
2017-11-28T19:19:22.767Z,6.07
2017-11-28T19:21:50.156Z,6.00
2017-11-28T19:24:17.544Z,5.93
2017-11-28T19:26:45.088Z,5.82
2017-11-28T19:29:12.475Z,5.75
2017-11-28T19:31:39.878Z,5.70
2017-11-28T19:34:08.314Z,5.70
2017-11-28T19:36:35.776Z,5.72
2017-11-28T19:39:03.208Z,5.70
2017-11-28T19:41:30.590Z,5.74
2017-11-28T19:43:57.992Z,5.69
2017-11-28T19:46:25.396Z,5.60
2017-11-28T19:48:52.783Z,5.52
2017-11-28T19:51:20.182Z,5.46
2017-11-28T19:53:47.569Z,5.42
2017-11-28T19:56:15.945Z,5.42
2017-11-28T19:58:43.355Z,5.37
2017-11-28T20:01:10.760Z,5.32
2017-11-28T20:03:38.148Z,5.30
2017-11-28T20:06:05.554Z,5.29
2017-11-28T20:08:32.961Z,5.30
2017-11-28T20:11:00.376Z,5.34
2017-11-28T20:13:27.822Z,5.39
2017-11-28T20:15:58.576Z,5.39
2017-11-28T20:18:26.015Z,5.42
2017-11-28T20:20:53.419Z,5.45
2017-11-28T20:23:20.812Z,5.51
2017-11-28T20:25:48.210Z,5.59
2017-11-28T20:28:15.626Z,5.64
2017-11-28T20:30:43.025Z,5.65
2017-11-28T20:33:10.461Z,5.68
2017-11-28T20:35:37.841Z,5.71
2017-11-28T20:38:05.236Z,5.75
2017-11-28T20:40:32.640Z,5.77
2017-11-28T20:43:00.051Z,5.77
2017-11-28T20:45:27.467Z,5.79
2017-11-28T20:47:54.874Z,5.84
2017-11-28T20:50:22.251Z,5.84
2017-11-28T20:52:49.640Z,5.87
2017-11-28T20:55:17.032Z,5.89
2017-11-28T20:57:44.444Z,5.89
2017-11-28T21:00:11.842Z,5.89
2017-11-28T21:02:39.231Z,5.88
2017-11-28T21:05:06.637Z,5.85
2017-11-28T21:07:34.021Z,5.86
2017-11-28T21:10:01.435Z,5.82
2017-11-28T21:12:28.819Z,5.85
2017-11-28T21:14:56.220Z,5.79
2017-11-28T21:17:23.623Z,5.73
2017-11-28T21:19:51.024Z,5.71
2017-11-28T21:22:18.435Z,5.69
2017-11-28T21:24:45.845Z,5.68
2017-11-28T21:27:13.224Z,5.62
2017-11-28T21:29:40.637Z,5.63
2017-11-28T21:32:08.034Z,5.64
2017-11-28T21:34:35.435Z,5.67
2017-11-28T21:37:02.823Z,5.69
2017-11-28T21:39:30.274Z,5.73
2017-11-28T21:41:57.664Z,5.75
2017-11-28T21:44:25.063Z,5.80
2017-11-28T21:46:52.480Z,5.80
2017-11-28T21:49:19.871Z,5.84
2017-11-28T21:51:47.290Z,5.83
2017-11-28T21:54:14.683Z,5.83
2017-11-28T21:56:42.084Z,5.83
2017-11-28T21:59:09.508Z,5.81
2017-11-28T22:01:36.896Z,5.80
2017-11-28T22:04:04.293Z,5.84
2017-11-28T22:06:31.696Z,5.84
2017-11-28T22:08:59.088Z,5.82
2017-11-28T22:11:26.508Z,5.81
2017-11-28T22:13:53.893Z,5.80
2017-11-28T22:16:21.331Z,5.82
2017-11-28T22:18:48.726Z,5.84
2017-11-28T22:21:16.112Z,5.85
2017-11-28T22:23:43.511Z,5.87
2017-11-28T22:26:10.904Z,5.88
2017-11-28T22:28:38.316Z,5.89
2017-11-28T22:31:05.720Z,5.86
2017-11-28T22:33:33.136Z,5.86
2017-11-28T22:36:00.540Z,5.83
2017-11-28T22:38:27.944Z,5.84
2017-11-28T22:40:55.354Z,5.86
2017-11-28T22:43:22.751Z,5.87
2017-11-28T22:45:50.184Z,5.85
2017-11-28T22:48:17.588Z,5.86
2017-11-28T22:50:44.973Z,5.88
2017-11-28T22:53:12.372Z,5.86
2017-11-28T22:55:39.768Z,5.88
2017-11-28T22:58:07.212Z,5.89
2017-11-28T23:00:34.610Z,5.89
2017-11-28T23:03:02.012Z,5.89
2017-11-28T23:05:29.411Z,5.86
2017-11-28T23:07:56.833Z,5.85
2017-11-28T23:10:24.211Z,5.86
2017-11-28T23:12:51.620Z,5.84
2017-11-28T23:15:19.022Z,5.83
2017-11-28T23:17:46.428Z,5.82
2017-11-28T23:20:13.855Z,5.85
2017-11-28T23:22:41.255Z,5.86
2017-11-28T23:25:08.656Z,5.87
2017-11-28T23:27:36.059Z,5.87
2017-11-28T23:30:03.460Z,5.94
2017-11-28T23:32:30.868Z,5.90
2017-11-28T23:34:58.268Z,5.91
2017-11-28T23:37:25.693Z,5.88
2017-11-28T23:39:53.089Z,5.89
2017-11-28T23:42:20.472Z,5.93
2017-11-28T23:44:47.875Z,5.92
2017-11-28T23:47:15.299Z,5.93
2017-11-28T23:49:42.719Z,5.96
2017-11-28T23:52:10.130Z,5.99
2017-11-28T23:54:37.521Z,6.00
2017-11-28T23:57:04.906Z,6.01
2017-11-28T23:59:32.293Z,6.02
